Terminal Aerodrome Forecast
Issued by NWS Chicago, IL

Home | Current Version | Previous Version | Text Only | Print | Product List | Glossary On
Versions: 1 2 3 4 5 6 7 8 9 10 11 12 13 14 15 16 17 18 19 20 21 22 23 24 25 26 27 28 29 30 31 32 33 34 35 36 37
000
FTUS43 KLOT 221700
TAFRFD
TAF
KRFD 221731Z 2218/2318 19007KT P6SM VCSH SCT015 BKN035
      TEMPO 2218/2219 BKN015
     FM222100 13005KT P6SM VCTS BKN035CB BKN100
     FM230100 VRB04KT 6SM BR SCT040 BKN250
     FM230600 VRB02KT 3SM BR BKN006
     FM231500 10006KT P6SM SCT010 BKN200=

USA.gov is the U.S. government's official web portal to all federal, state and local government web resources and services.